sensor_id;sensor_type;location;lat;lon;timestamp;P1;durP1;ratioP1;P2;durP2;ratioP2
41964;SDS011;50120;53.250;8.702;2022-11-04T00:01:31;10.48;;;4.60;;
41964;SDS011;50120;53.250;8.702;2022-11-04T00:03:57;9.73;;;4.40;;
41964;SDS011;50120;53.250;8.702;2022-11-04T00:06:24;9.55;;;4.60;;
41964;SDS011;50120;53.250;8.702;2022-11-04T00:08:50;8.63;;;4.13;;
41964;SDS011;50120;53.250;8.702;2022-11-04T00:11:17;9.50;;;4.50;;
41964;SDS011;50120;53.250;8.702;2022-11-04T00:14:02;9.88;;;3.92;;
41964;SDS011;50120;53.250;8.702;2022-11-04T00:16:28;8.82;;;4.30;;
41964;SDS011;50120;53.250;8.702;2022-11-04T00:19:13;7.97;;;3.83;;
41964;SDS011;50120;53.250;8.702;2022-11-04T00:21:38;14.18;;;3.97;;
41964;SDS011;50120;53.250;8.702;2022-11-04T00:24:23;7.43;;;4.05;;
41964;SDS011;50120;53.250;8.702;2022-11-04T00:27:10;7.50;;;4.30;;
41964;SDS011;50120;53.250;8.702;2022-11-04T00:29:55;9.60;;;4.40;;
41964;SDS011;50120;53.250;8.702;2022-11-04T00:32:21;8.50;;;4.55;;
41964;SDS011;50120;53.250;8.702;2022-11-04T00:35:07;10.32;;;4.20;;
41964;SDS011;50120;53.250;8.702;2022-11-04T00:37:37;9.85;;;4.38;;
41964;SDS011;50120;53.250;8.702;2022-11-04T00:40:07;8.10;;;4.38;;
41964;SDS011;50120;53.250;8.702;2022-11-04T00:42:34;8.13;;;4.18;;
41964;SDS011;50120;53.250;8.702;2022-11-04T00:45:00;8.70;;;4.20;;
41964;SDS011;50120;53.250;8.702;2022-11-04T00:47:26;9.57;;;4.07;;
41964;SDS011;50120;53.250;8.702;2022-11-04T00:49:52;7.35;;;4.00;;
41964;SDS011;50120;53.250;8.702;2022-11-04T00:52:18;7.40;;;4.03;;
41964;SDS011;50120;53.250;8.702;2022-11-04T00:54:44;9.23;;;4.00;;
41964;SDS011;50120;53.250;8.702;2022-11-04T00:57:10;6.60;;;4.15;;
41964;SDS011;50120;53.250;8.702;2022-11-04T00:59:37;6.00;;;3.53;;
41964;SDS011;50120;53.250;8.702;2022-11-04T01:02:04;6.55;;;3.88;;
41964;SDS011;50120;53.250;8.702;2022-11-04T01:04:30;6.97;;;3.40;;
41964;SDS011;50120;53.250;8.702;2022-11-04T01:06:56;7.45;;;3.47;;
41964;SDS011;50120;53.250;8.702;2022-11-04T01:09:22;7.28;;;3.80;;
41964;SDS011;50120;53.250;8.702;2022-11-04T01:11:48;6.35;;;3.83;;
41964;SDS011;50120;53.250;8.702;2022-11-04T01:14:14;10.80;;;4.50;;
41964;SDS011;50120;53.250;8.702;2022-11-04T01:16:39;10.88;;;4.22;;
41964;SDS011;50120;53.250;8.702;2022-11-04T01:19:05;7.55;;;4.30;;
41964;SDS011;50120;53.250;8.702;2022-11-04T01:21:31;9.32;;;5.10;;
41964;SDS011;50120;53.250;8.702;2022-11-04T01:23:58;14.10;;;5.70;;
41964;SDS011;50120;53.250;8.702;2022-11-04T01:26:24;10.35;;;5.25;;
41964;SDS011;50120;53.250;8.702;2022-11-04T01:28:51;13.07;;;5.30;;
41964;SDS011;50120;53.250;8.702;2022-11-04T01:31:19;9.65;;;5.90;;
41964;SDS011;50120;53.250;8.702;2022-11-04T01:33:50;10.55;;;5.15;;
41964;SDS011;50120;53.250;8.702;2022-11-04T01:36:17;12.50;;;6.60;;
41964;SDS011;50120;53.250;8.702;2022-11-04T01:38:43;11.40;;;6.60;;
41964;SDS011;50120;53.250;8.702;2022-11-04T01:41:31;11.82;;;6.05;;
41964;SDS011;50120;53.250;8.702;2022-11-04T01:43:58;11.00;;;6.75;;
41964;SDS011;50120;53.250;8.702;2022-11-04T01:49:24;13.02;;;6.88;;
41964;SDS011;50120;53.250;8.702;2022-11-04T01:51:56;9.70;;;6.65;;
41964;SDS011;50120;53.250;8.702;2022-11-04T01:54:26;14.50;;;7.15;;
41964;SDS011;50120;53.250;8.702;2022-11-04T01:56:53;14.00;;;6.88;;
41964;SDS011;50120;53.250;8.702;2022-11-04T01:59:21;11.63;;;6.68;;
41964;SDS011;50120;53.250;8.702;2022-11-04T02:01:51;19.17;;;7.30;;
41964;SDS011;50120;53.250;8.702;2022-11-04T02:04:18;12.77;;;6.97;;
41964;SDS011;50120;53.250;8.702;2022-11-04T02:06:54;12.40;;;7.30;;
41964;SDS011;50120;53.250;8.702;2022-11-04T02:09:23;10.98;;;6.80;;
41964;SDS011;50120;53.250;8.702;2022-11-04T02:11:50;13.45;;;7.43;;
41964;SDS011;50120;53.250;8.702;2022-11-04T02:14:35;12.48;;;7.80;;
41964;SDS011;50120;53.250;8.702;2022-11-04T02:17:06;12.13;;;7.43;;
41964;SDS011;50120;53.250;8.702;2022-11-04T02:34:30;12.00;;;7.30;;
41964;SDS011;50120;53.250;8.702;2022-11-04T02:37:11;13.75;;;7.57;;
41964;SDS011;50120;53.250;8.702;2022-11-04T02:39:54;11.55;;;6.35;;
41964;SDS011;50120;53.250;8.702;2022-11-04T02:45:20;10.38;;;6.38;;
41964;SDS011;50120;53.250;8.702;2022-11-04T02:48:09;8.65;;;5.88;;
41964;SDS011;50120;53.250;8.702;2022-11-04T02:56:37;8.02;;;4.72;;
41964;SDS011;50120;53.250;8.702;2022-11-04T03:01:53;6.85;;;3.90;;
41964;SDS011;50120;53.250;8.702;2022-11-04T03:04:25;7.60;;;3.92;;
41964;SDS011;50120;53.250;8.702;2022-11-04T03:06:55;6.88;;;3.78;;
41964;SDS011;50120;53.250;8.702;2022-11-04T03:09:23;5.35;;;2.72;;
41964;SDS011;50120;53.250;8.702;2022-11-04T03:11:54;4.78;;;2.60;;
41964;SDS011;50120;53.250;8.702;2022-11-04T03:14:28;3.17;;;1.85;;
41964;SDS011;50120;53.250;8.702;2022-11-04T03:17:01;2.33;;;1.70;;
41964;SDS011;50120;53.250;8.702;2022-11-04T03:19:48;2.33;;;1.50;;
41964;SDS011;50120;53.250;8.702;2022-11-04T03:22:18;1.70;;;1.30;;
41964;SDS011;50120;53.250;8.702;2022-11-04T03:24:46;2.67;;;1.30;;
41964;SDS011;50120;53.250;8.702;2022-11-04T03:35:31;3.03;;;1.02;;
41964;SDS011;50120;53.250;8.702;2022-11-04T03:37:57;1.48;;;1.17;;
41964;SDS011;50120;53.250;8.702;2022-11-04T03:40:23;1.80;;;1.27;;
41964;SDS011;50120;53.250;8.702;2022-11-04T03:45:22;2.40;;;1.35;;
41964;SDS011;50120;53.250;8.702;2022-11-04T03:47:48;2.53;;;1.50;;
41964;SDS011;50120;53.250;8.702;2022-11-04T03:50:19;4.00;;;1.92;;
41964;SDS011;50120;53.250;8.702;2022-11-04T03:52:51;3.45;;;2.00;;
41964;SDS011;50120;53.250;8.702;2022-11-04T03:55:17;2.70;;;1.98;;
41964;SDS011;50120;53.250;8.702;2022-11-04T04:00:17;5.75;;;2.40;;
41964;SDS011;50120;53.250;8.702;2022-11-04T04:02:54;4.25;;;2.10;;
41964;SDS011;50120;53.250;8.702;2022-11-04T04:05:32;4.97;;;2.38;;
41964;SDS011;50120;53.250;8.702;2022-11-04T04:13:53;3.95;;;2.53;;
41964;SDS011;50120;53.250;8.702;2022-11-04T04:16:38;5.93;;;2.47;;
41964;SDS011;50120;53.250;8.702;2022-11-04T04:22:19;4.57;;;2.67;;
41964;SDS011;50120;53.250;8.702;2022-11-04T04:24:31;5.85;;;2.90;;
41964;SDS011;50120;53.250;8.702;2022-11-04T04:27:19;5.40;;;2.75;;
41964;SDS011;50120;53.250;8.702;2022-11-04T04:29:56;4.38;;;3.00;;
41964;SDS011;50120;53.250;8.702;2022-11-04T04:32:27;4.45;;;3.10;;
41964;SDS011;50120;53.250;8.702;2022-11-04T04:34:56;5.50;;;3.58;;
41964;SDS011;50120;53.250;8.702;2022-11-04T04:37:41;5.55;;;3.72;;
41964;SDS011;50120;53.250;8.702;2022-11-04T04:40:11;4.85;;;3.42;;
41964;SDS011;50120;53.250;8.702;2022-11-04T04:42:59;7.10;;;3.50;;
41964;SDS011;50120;53.250;8.702;2022-11-04T04:45:48;5.47;;;3.58;;
41964;SDS011;50120;53.250;8.702;2022-11-04T04:48:19;6.93;;;3.88;;
41964;SDS011;50120;53.250;8.702;2022-11-04T04:50:48;6.82;;;3.40;;
41964;SDS011;50120;53.250;8.702;2022-11-04T04:53:18;7.28;;;3.83;;
41964;SDS011;50120;53.250;8.702;2022-11-04T04:55:48;7.40;;;3.63;;
41964;SDS011;50120;53.250;8.702;2022-11-04T04:58:20;4.88;;;3.60;;
41964;SDS011;50120;53.250;8.702;2022-11-04T05:00:49;4.70;;;3.58;;
41964;SDS011;50120;53.250;8.702;2022-11-04T05:03:15;6.65;;;4.00;;
41964;SDS011;50120;53.250;8.702;2022-11-04T05:05:41;7.50;;;4.00;;
41964;SDS011;50120;53.250;8.702;2022-11-04T05:08:16;5.05;;;3.80;;
41964;SDS011;50120;53.250;8.702;2022-11-04T05:10:42;4.90;;;3.90;;
41964;SDS011;50120;53.250;8.702;2022-11-04T05:13:08;6.93;;;4.60;;
41964;SDS011;50120;53.250;8.702;2022-11-04T05:15:50;5.47;;;4.63;;
41964;SDS011;50120;53.250;8.702;2022-11-04T05:18:21;5.28;;;4.25;;
41964;SDS011;50120;53.250;8.702;2022-11-04T05:20:47;5.78;;;4.15;;
41964;SDS011;50120;53.250;8.702;2022-11-04T05:23:13;6.30;;;3.67;;
41964;SDS011;50120;53.250;8.702;2022-11-04T05:25:39;6.88;;;3.78;;
41964;SDS011;50120;53.250;8.702;2022-11-04T05:28:05;5.68;;;3.50;;
41964;SDS011;50120;53.250;8.702;2022-11-04T05:30:31;3.78;;;3.13;;
41964;SDS011;50120;53.250;8.702;2022-11-04T05:32:57;7.68;;;3.60;;
41964;SDS011;50120;53.250;8.702;2022-11-04T05:35:23;4.95;;;3.67;;
41964;SDS011;50120;53.250;8.702;2022-11-04T05:37:48;5.22;;;3.58;;
41964;SDS011;50120;53.250;8.702;2022-11-04T05:40:14;5.22;;;3.80;;
41964;SDS011;50120;53.250;8.702;2022-11-04T05:42:40;4.30;;;3.50;;
41964;SDS011;50120;53.250;8.702;2022-11-04T05:45:06;5.82;;;3.83;;
41964;SDS011;50120;53.250;8.702;2022-11-04T05:47:32;6.80;;;3.65;;
41964;SDS011;50120;53.250;8.702;2022-11-04T05:49:57;13.38;;;8.98;;
41964;SDS011;50120;53.250;8.702;2022-11-04T05:52:23;8.18;;;4.88;;
41964;SDS011;50120;53.250;8.702;2022-11-04T05:54:49;9.10;;;5.78;;
41964;SDS011;50120;53.250;8.702;2022-11-04T05:57:14;8.38;;;4.80;;
41964;SDS011;50120;53.250;8.702;2022-11-04T05:59:40;8.13;;;4.70;;
41964;SDS011;50120;53.250;8.702;2022-11-04T06:02:06;7.57;;;4.28;;
41964;SDS011;50120;53.250;8.702;2022-11-04T06:04:31;6.75;;;4.15;;
41964;SDS011;50120;53.250;8.702;2022-11-04T06:06:57;7.25;;;4.30;;
41964;SDS011;50120;53.250;8.702;2022-11-04T06:09:23;7.60;;;4.57;;
41964;SDS011;50120;53.250;8.702;2022-11-04T06:12:12;6.22;;;4.45;;
41964;SDS011;50120;53.250;8.702;2022-11-04T06:14:39;10.65;;;6.95;;
41964;SDS011;50120;53.250;8.702;2022-11-04T06:17:05;10.18;;;6.93;;
41964;SDS011;50120;53.250;8.702;2022-11-04T06:19:31;7.82;;;5.45;;
41964;SDS011;50120;53.250;8.702;2022-11-04T06:21:57;8.32;;;4.40;;
41964;SDS011;50120;53.250;8.702;2022-11-04T06:24:24;6.53;;;4.28;;
41964;SDS011;50120;53.250;8.702;2022-11-04T06:26:50;6.75;;;4.53;;
41964;SDS011;50120;53.250;8.702;2022-11-04T06:29:16;6.72;;;4.00;;
41964;SDS011;50120;53.250;8.702;2022-11-04T06:31:41;5.20;;;4.25;;
41964;SDS011;50120;53.250;8.702;2022-11-04T06:34:07;5.65;;;3.95;;
41964;SDS011;50120;53.250;8.702;2022-11-04T06:36:33;4.20;;;3.30;;
41964;SDS011;50120;53.250;8.702;2022-11-04T06:38:58;3.88;;;2.70;;
41964;SDS011;50120;53.250;8.702;2022-11-04T06:41:24;4.97;;;2.80;;
41964;SDS011;50120;53.250;8.702;2022-11-04T06:43:50;3.50;;;2.60;;
41964;SDS011;50120;53.250;8.702;2022-11-04T06:46:26;3.47;;;2.15;;
41964;SDS011;50120;53.250;8.702;2022-11-04T06:48:58;3.63;;;2.30;;
41964;SDS011;50120;53.250;8.702;2022-11-04T06:51:24;2.92;;;2.20;;
41964;SDS011;50120;53.250;8.702;2022-11-04T06:53:49;2.38;;;1.98;;
41964;SDS011;50120;53.250;8.702;2022-11-04T06:56:15;4.63;;;2.10;;
41964;SDS011;50120;53.250;8.702;2022-11-04T06:58:41;3.63;;;2.17;;
41964;SDS011;50120;53.250;8.702;2022-11-04T07:01:07;2.58;;;1.90;;
41964;SDS011;50120;53.250;8.702;2022-11-04T07:03:33;4.13;;;2.72;;
41964;SDS011;50120;53.250;8.702;2022-11-04T07:06:04;4.47;;;2.85;;
41964;SDS011;50120;53.250;8.702;2022-11-04T07:08:30;4.50;;;2.88;;
41964;SDS011;50120;53.250;8.702;2022-11-04T07:10:56;5.07;;;2.67;;
41964;SDS011;50120;53.250;8.702;2022-11-04T07:13:21;4.35;;;2.67;;
41964;SDS011;50120;53.250;8.702;2022-11-04T07:15:47;4.00;;;2.90;;
41964;SDS011;50120;53.250;8.702;2022-11-04T07:18:13;4.65;;;2.85;;
41964;SDS011;50120;53.250;8.702;2022-11-04T07:20:38;3.28;;;2.47;;
41964;SDS011;50120;53.250;8.702;2022-11-04T07:23:04;5.43;;;2.70;;
41964;SDS011;50120;53.250;8.702;2022-11-04T07:25:30;3.85;;;2.20;;
41964;SDS011;50120;53.250;8.702;2022-11-04T07:27:55;2.92;;;2.28;;
41964;SDS011;50120;53.250;8.702;2022-11-04T07:30:21;3.83;;;2.10;;
41964;SDS011;50120;53.250;8.702;2022-11-04T07:32:47;2.92;;;2.08;;
41964;SDS011;50120;53.250;8.702;2022-11-04T07:35:13;3.08;;;2.00;;
41964;SDS011;50120;53.250;8.702;2022-11-04T07:37:39;3.80;;;2.30;;
41964;SDS011;50120;53.250;8.702;2022-11-04T07:40:05;3.33;;;2.85;;
41964;SDS011;50120;53.250;8.702;2022-11-04T07:42:31;4.40;;;2.30;;
41964;SDS011;50120;53.250;8.702;2022-11-04T07:44:57;5.03;;;2.25;;
41964;SDS011;50120;53.250;8.702;2022-11-04T07:47:22;2.58;;;1.90;;
41964;SDS011;50120;53.250;8.702;2022-11-04T07:49:48;3.78;;;2.25;;
41964;SDS011;50120;53.250;8.702;2022-11-04T07:52:14;3.42;;;2.05;;
41964;SDS011;50120;53.250;8.702;2022-11-04T07:54:40;3.17;;;2.33;;
41964;SDS011;50120;53.250;8.702;2022-11-04T07:57:06;2.83;;;1.80;;
41964;SDS011;50120;53.250;8.702;2022-11-04T07:59:32;2.45;;;1.58;;
41964;SDS011;50120;53.250;8.702;2022-11-04T08:01:58;3.03;;;1.70;;
41964;SDS011;50120;53.250;8.702;2022-11-04T08:04:23;4.75;;;1.60;;
41964;SDS011;50120;53.250;8.702;2022-11-04T08:06:49;15.75;;;7.65;;
41964;SDS011;50120;53.250;8.702;2022-11-04T08:09:15;3.50;;;2.30;;
41964;SDS011;50120;53.250;8.702;2022-11-04T08:11:40;5.25;;;3.00;;
41964;SDS011;50120;53.250;8.702;2022-11-04T08:14:06;8.85;;;4.57;;
41964;SDS011;50120;53.250;8.702;2022-11-04T08:16:32;3.20;;;2.10;;
41964;SDS011;50120;53.250;8.702;2022-11-04T08:18:58;2.53;;;1.63;;
41964;SDS011;50120;53.250;8.702;2022-11-04T08:21:27;2.72;;;1.70;;
41964;SDS011;50120;53.250;8.702;2022-11-04T08:23:54;2.70;;;1.75;;
41964;SDS011;50120;53.250;8.702;2022-11-04T08:26:20;4.00;;;1.30;;
41964;SDS011;50120;53.250;8.702;2022-11-04T08:28:47;1.52;;;1.05;;
41964;SDS011;50120;53.250;8.702;2022-11-04T08:31:23;2.00;;;0.88;;
41964;SDS011;50120;53.250;8.702;2022-11-04T08:36:25;0.70;;;0.65;;
41964;SDS011;50120;53.250;8.702;2022-11-04T08:38:56;2.30;;;1.70;;
41964;SDS011;50120;53.250;8.702;2022-11-04T08:41:24;1.98;;;1.15;;
41964;SDS011;50120;53.250;8.702;2022-11-04T08:43:53;12.25;;;2.78;;
41964;SDS011;50120;53.250;8.702;2022-11-04T08:46:20;6.60;;;2.28;;
41964;SDS011;50120;53.250;8.702;2022-11-04T08:48:46;3.00;;;1.40;;
41964;SDS011;50120;53.250;8.702;2022-11-04T08:51:15;1.90;;;0.82;;
41964;SDS011;50120;53.250;8.702;2022-11-04T08:53:42;4.70;;;1.75;;
41964;SDS011;50120;53.250;8.702;2022-11-04T08:56:15;2.20;;;1.05;;
41964;SDS011;50120;53.250;8.702;2022-11-04T08:58:41;3.25;;;1.55;;
41964;SDS011;50120;53.250;8.702;2022-11-04T09:01:08;5.47;;;1.98;;
41964;SDS011;50120;53.250;8.702;2022-11-04T09:03:36;3.20;;;1.30;;
41964;SDS011;50120;53.250;8.702;2022-11-04T09:06:03;5.63;;;1.88;;
41964;SDS011;50120;53.250;8.702;2022-11-04T09:08:30;3.90;;;1.23;;
41964;SDS011;50120;53.250;8.702;2022-11-04T09:10:56;4.03;;;1.08;;
41964;SDS011;50120;53.250;8.702;2022-11-04T09:13:21;5.20;;;0.90;;
41964;SDS011;50120;53.250;8.702;2022-11-04T09:15:47;3.20;;;0.60;;
41964;SDS011;50120;53.250;8.702;2022-11-04T09:18:13;3.63;;;0.90;;
41964;SDS011;50120;53.250;8.702;2022-11-04T09:20:39;1.38;;;0.65;;
41964;SDS011;50120;53.250;8.702;2022-11-04T09:23:06;3.33;;;0.82;;
41964;SDS011;50120;53.250;8.702;2022-11-04T09:25:32;1.75;;;0.70;;
41964;SDS011;50120;53.250;8.702;2022-11-04T09:27:59;1.40;;;0.80;;
41964;SDS011;50120;53.250;8.702;2022-11-04T09:30:25;1.98;;;0.68;;
41964;SDS011;50120;53.250;8.702;2022-11-04T09:32:51;1.60;;;0.88;;
41964;SDS011;50120;53.250;8.702;2022-11-04T09:35:17;3.65;;;0.70;;
41964;SDS011;50120;53.250;8.702;2022-11-04T09:37:42;2.20;;;0.80;;
41964;SDS011;50120;53.250;8.702;2022-11-04T09:40:16;1.05;;;0.60;;
41964;SDS011;50120;53.250;8.702;2022-11-04T09:45:20;1.08;;;0.90;;
41964;SDS011;50120;53.250;8.702;2022-11-04T09:47:51;4.03;;;1.00;;
41964;SDS011;50120;53.250;8.702;2022-11-04T09:50:24;1.58;;;0.98;;
41964;SDS011;50120;53.250;8.702;2022-11-04T09:52:57;2.38;;;1.10;;
41964;SDS011;50120;53.250;8.702;2022-11-04T09:55:44;3.28;;;2.40;;
41964;SDS011;50120;53.250;8.702;2022-11-04T09:58:16;2.05;;;1.05;;
41964;SDS011;50120;53.250;8.702;2022-11-04T10:00:44;2.08;;;1.40;;
41964;SDS011;50120;53.250;8.702;2022-11-04T10:03:28;3.53;;;1.05;;
41964;SDS011;50120;53.250;8.702;2022-11-04T10:06:49;3.53;;;1.38;;
41964;SDS011;50120;53.250;8.702;2022-11-04T10:25:27;5.40;;;1.38;;
41964;SDS011;50120;53.250;8.702;2022-11-04T10:27:58;4.60;;;1.13;;
41964;SDS011;50120;53.250;8.702;2022-11-04T10:30:24;3.05;;;1.30;;
41964;SDS011;50120;53.250;8.702;2022-11-04T10:38:20;5.88;;;1.10;;
41964;SDS011;50120;53.250;8.702;2022-11-04T10:40:57;2.67;;;1.42;;
41964;SDS011;50120;53.250;8.702;2022-11-04T10:43:36;1.85;;;0.82;;
41964;SDS011;50120;53.250;8.702;2022-11-04T10:51:53;3.63;;;1.10;;
41964;SDS011;50120;53.250;8.702;2022-11-04T10:54:20;2.97;;;0.90;;
41964;SDS011;50120;53.250;8.702;2022-11-04T10:56:49;2.40;;;0.80;;
41964;SDS011;50120;53.250;8.702;2022-11-04T10:59:23;2.85;;;0.90;;
41964;SDS011;50120;53.250;8.702;2022-11-04T11:01:53;3.28;;;1.20;;
41964;SDS011;50120;53.250;8.702;2022-11-04T11:04:27;2.28;;;0.80;;
41964;SDS011;50120;53.250;8.702;2022-11-04T11:06:56;4.00;;;1.30;;
41964;SDS011;50120;53.250;8.702;2022-11-04T11:09:24;3.95;;;0.90;;
41964;SDS011;50120;53.250;8.702;2022-11-04T11:11:54;5.20;;;1.00;;
41964;SDS011;50120;53.250;8.702;2022-11-04T11:22:36;3.90;;;1.20;;
41964;SDS011;50120;53.250;8.702;2022-11-04T11:27:59;3.80;;;1.00;;
41964;SDS011;50120;53.250;8.702;2022-11-04T11:33:16;4.35;;;1.15;;
41964;SDS011;50120;53.250;8.702;2022-11-04T11:36:02;5.25;;;1.55;;
41964;SDS011;50120;53.250;8.702;2022-11-04T11:38:29;5.93;;;1.48;;
41964;SDS011;50120;53.250;8.702;2022-11-04T11:41:10;4.88;;;1.73;;
41964;SDS011;50120;53.250;8.702;2022-11-04T11:43:39;3.03;;;1.02;;
41964;SDS011;50120;53.250;8.702;2022-11-04T11:46:08;3.55;;;1.20;;
41964;SDS011;50120;53.250;8.702;2022-11-04T11:48:39;5.88;;;1.23;;
41964;SDS011;50120;53.250;8.702;2022-11-04T11:51:16;5.47;;;1.33;;
41964;SDS011;50120;53.250;8.702;2022-11-04T11:54:00;4.22;;;1.42;;
41964;SDS011;50120;53.250;8.702;2022-11-04T11:56:37;4.78;;;1.30;;
41964;SDS011;50120;53.250;8.702;2022-11-04T12:04:53;3.15;;;1.23;;
41964;SDS011;50120;53.250;8.702;2022-11-04T12:21:00;3.53;;;1.50;;
41964;SDS011;50120;53.250;8.702;2022-11-04T12:39:47;5.28;;;1.85;;
41964;SDS011;50120;53.250;8.702;2022-11-04T12:42:33;4.93;;;1.60;;
41964;SDS011;50120;53.250;8.702;2022-11-04T12:47:49;5.57;;;1.70;;
41964;SDS011;50120;53.250;8.702;2022-11-04T12:55:37;4.97;;;1.50;;
41964;SDS011;50120;53.250;8.702;2022-11-04T13:00:58;4.38;;;1.42;;
41964;SDS011;50120;53.250;8.702;2022-11-04T13:03:43;7.03;;;1.50;;
41964;SDS011;50120;53.250;8.702;2022-11-04T13:09:17;4.78;;;1.60;;
41964;SDS011;50120;53.250;8.702;2022-11-04T13:12:00;4.97;;;1.20;;
41964;SDS011;50120;53.250;8.702;2022-11-04T13:14:45;6.15;;;1.40;;
41964;SDS011;50120;53.250;8.702;2022-11-04T13:17:34;3.92;;;1.45;;
41964;SDS011;50120;53.250;8.702;2022-11-04T13:20:12;5.20;;;1.40;;
41964;SDS011;50120;53.250;8.702;2022-11-04T13:23:05;5.70;;;1.77;;
41964;SDS011;50120;53.250;8.702;2022-11-04T13:25:41;6.05;;;1.90;;
41964;SDS011;50120;53.250;8.702;2022-11-04T13:28:11;5.50;;;2.30;;
41964;SDS011;50120;53.250;8.702;2022-11-04T13:30:45;4.40;;;1.92;;
41964;SDS011;50120;53.250;8.702;2022-11-04T13:33:32;4.80;;;1.90;;
41964;SDS011;50120;53.250;8.702;2022-11-04T13:36:21;5.50;;;1.65;;
41964;SDS011;50120;53.250;8.702;2022-11-04T13:39:21;5.22;;;1.90;;
41964;SDS011;50120;53.250;8.702;2022-11-04T13:44:36;3.70;;;1.70;;
41964;SDS011;50120;53.250;8.702;2022-11-04T13:47:12;3.58;;;1.10;;
41964;SDS011;50120;53.250;8.702;2022-11-04T13:49:48;4.18;;;1.98;;
41964;SDS011;50120;53.250;8.702;2022-11-04T13:52:16;7.38;;;4.38;;
41964;SDS011;50120;53.250;8.702;2022-11-04T13:54:59;8.35;;;3.30;;
41964;SDS011;50120;53.250;8.702;2022-11-04T13:57:30;10.45;;;4.38;;
41964;SDS011;50120;53.250;8.702;2022-11-04T14:00:21;6.80;;;2.60;;
41964;SDS011;50120;53.250;8.702;2022-11-04T14:02:53;5.70;;;3.00;;
41964;SDS011;50120;53.250;8.702;2022-11-04T14:11:18;4.60;;;2.50;;
41964;SDS011;50120;53.250;8.702;2022-11-04T14:16:02;7.75;;;3.95;;
41964;SDS011;50120;53.250;8.702;2022-11-04T14:18:35;7.88;;;3.55;;
41964;SDS011;50120;53.250;8.702;2022-11-04T14:23:45;6.90;;;1.67;;
41964;SDS011;50120;53.250;8.702;2022-11-04T14:26:14;12.68;;;4.70;;
41964;SDS011;50120;53.250;8.702;2022-11-04T14:31:51;9.05;;;4.28;;
41964;SDS011;50120;53.250;8.702;2022-11-04T14:34:31;8.00;;;4.40;;
41964;SDS011;50120;53.250;8.702;2022-11-04T14:37:05;5.65;;;2.40;;
41964;SDS011;50120;53.250;8.702;2022-11-04T14:39:44;5.70;;;2.30;;
41964;SDS011;50120;53.250;8.702;2022-11-04T14:45:14;4.95;;;1.45;;
41964;SDS011;50120;53.250;8.702;2022-11-04T14:47:44;4.88;;;1.60;;
41964;SDS011;50120;53.250;8.702;2022-11-04T14:50:15;4.43;;;1.58;;
41964;SDS011;50120;53.250;8.702;2022-11-04T14:52:48;6.28;;;1.80;;
41964;SDS011;50120;53.250;8.702;2022-11-04T14:55:27;5.32;;;1.50;;
41964;SDS011;50120;53.250;8.702;2022-11-04T14:57:55;4.60;;;1.13;;
41964;SDS011;50120;53.250;8.702;2022-11-04T15:03:14;6.30;;;1.05;;
41964;SDS011;50120;53.250;8.702;2022-11-04T15:05:48;4.40;;;1.40;;
41964;SDS011;50120;53.250;8.702;2022-11-04T15:08:29;7.50;;;4.65;;
41964;SDS011;50120;53.250;8.702;2022-11-04T15:13:35;7.20;;;3.03;;
41964;SDS011;50120;53.250;8.702;2022-11-04T15:16:06;5.85;;;2.10;;
41964;SDS011;50120;53.250;8.702;2022-11-04T15:18:44;10.98;;;6.03;;
41964;SDS011;50120;53.250;8.702;2022-11-04T15:21:10;7.32;;;3.55;;
41964;SDS011;50120;53.250;8.702;2022-11-04T15:23:41;6.97;;;1.90;;
41964;SDS011;50120;53.250;8.702;2022-11-04T15:26:19;6.82;;;1.95;;
41964;SDS011;50120;53.250;8.702;2022-11-04T15:28:50;4.38;;;2.00;;
41964;SDS011;50120;53.250;8.702;2022-11-04T15:31:18;7.28;;;2.13;;
41964;SDS011;50120;53.250;8.702;2022-11-04T15:33:49;5.25;;;1.80;;
41964;SDS011;50120;53.250;8.702;2022-11-04T15:36:21;4.25;;;1.25;;
41964;SDS011;50120;53.250;8.702;2022-11-04T15:39:02;3.85;;;1.65;;
41964;SDS011;50120;53.250;8.702;2022-11-04T15:41:45;7.03;;;1.63;;
41964;SDS011;50120;53.250;8.702;2022-11-04T15:44:33;5.90;;;1.70;;
41964;SDS011;50120;53.250;8.702;2022-11-04T15:47:02;6.90;;;2.08;;
41964;SDS011;50120;53.250;8.702;2022-11-04T15:49:49;7.93;;;2.42;;
41964;SDS011;50120;53.250;8.702;2022-11-04T15:52:18;6.25;;;2.75;;
41964;SDS011;50120;53.250;8.702;2022-11-04T15:54:52;10.57;;;3.60;;
41964;SDS011;50120;53.250;8.702;2022-11-04T16:05:19;5.03;;;2.15;;
41964;SDS011;50120;53.250;8.702;2022-11-04T16:08:12;5.80;;;2.35;;
41964;SDS011;50120;53.250;8.702;2022-11-04T16:10:38;9.35;;;2.08;;
41964;SDS011;50120;53.250;8.702;2022-11-04T16:15:42;2.75;;;1.25;;
41964;SDS011;50120;53.250;8.702;2022-11-04T16:18:22;7.38;;;1.90;;
41964;SDS011;50120;53.250;8.702;2022-11-04T16:21:01;6.88;;;1.95;;
41964;SDS011;50120;53.250;8.702;2022-11-04T16:23:34;8.45;;;2.40;;
41964;SDS011;50120;53.250;8.702;2022-11-04T16:26:11;9.02;;;2.65;;
41964;SDS011;50120;53.250;8.702;2022-11-04T16:28:38;7.47;;;1.95;;
41964;SDS011;50120;53.250;8.702;2022-11-04T16:31:15;3.20;;;1.40;;
41964;SDS011;50120;53.250;8.702;2022-11-04T16:33:49;4.65;;;1.60;;
41964;SDS011;50120;53.250;8.702;2022-11-04T16:36:15;9.02;;;1.67;;
41964;SDS011;50120;53.250;8.702;2022-11-04T16:38:51;6.20;;;2.00;;
41964;SDS011;50120;53.250;8.702;2022-11-04T16:41:17;11.38;;;2.35;;
41964;SDS011;50120;53.250;8.702;2022-11-04T16:43:43;8.05;;;2.50;;
41964;SDS011;50120;53.250;8.702;2022-11-04T16:46:10;6.50;;;1.77;;
41964;SDS011;50120;53.250;8.702;2022-11-04T16:48:36;6.47;;;1.90;;
41964;SDS011;50120;53.250;8.702;2022-11-04T16:51:02;7.35;;;2.00;;
41964;SDS011;50120;53.250;8.702;2022-11-04T16:53:28;8.70;;;2.20;;
41964;SDS011;50120;53.250;8.702;2022-11-04T16:55:53;6.22;;;1.65;;
41964;SDS011;50120;53.250;8.702;2022-11-04T16:58:20;5.60;;;1.60;;
41964;SDS011;50120;53.250;8.702;2022-11-04T17:00:46;8.13;;;2.20;;
41964;SDS011;50120;53.250;8.702;2022-11-04T17:03:16;4.25;;;1.80;;
41964;SDS011;50120;53.250;8.702;2022-11-04T17:05:49;8.32;;;1.80;;
41964;SDS011;50120;53.250;8.702;2022-11-04T17:08:16;5.85;;;1.75;;
41964;SDS011;50120;53.250;8.702;2022-11-04T17:10:42;4.70;;;1.92;;
41964;SDS011;50120;53.250;8.702;2022-11-04T17:13:08;11.50;;;2.22;;
41964;SDS011;50120;53.250;8.702;2022-11-04T17:15:34;5.47;;;1.73;;
41964;SDS011;50120;53.250;8.702;2022-11-04T17:18:00;7.03;;;2.15;;
41964;SDS011;50120;53.250;8.702;2022-11-04T17:20:26;7.53;;;2.20;;
41964;SDS011;50120;53.250;8.702;2022-11-04T17:22:53;7.10;;;2.33;;
41964;SDS011;50120;53.250;8.702;2022-11-04T17:25:23;7.63;;;2.55;;
41964;SDS011;50120;53.250;8.702;2022-11-04T17:27:52;8.63;;;2.10;;
41964;SDS011;50120;53.250;8.702;2022-11-04T17:30:18;8.27;;;2.08;;
41964;SDS011;50120;53.250;8.702;2022-11-04T17:32:45;7.75;;;2.05;;
41964;SDS011;50120;53.250;8.702;2022-11-04T17:35:12;9.13;;;2.20;;
41964;SDS011;50120;53.250;8.702;2022-11-04T17:37:39;7.22;;;1.90;;
41964;SDS011;50120;53.250;8.702;2022-11-04T17:40:05;7.63;;;2.13;;
41964;SDS011;50120;53.250;8.702;2022-11-04T17:42:32;7.30;;;1.80;;
41964;SDS011;50120;53.250;8.702;2022-11-04T17:45:16;8.40;;;2.75;;
41964;SDS011;50120;53.250;8.702;2022-11-04T17:47:42;37.13;;;18.25;;
41964;SDS011;50120;53.250;8.702;2022-11-04T17:50:08;14.80;;;5.60;;
41964;SDS011;50120;53.250;8.702;2022-11-04T17:52:34;17.38;;;5.85;;
41964;SDS011;50120;53.250;8.702;2022-11-04T17:55:00;8.40;;;3.97;;
41964;SDS011;50120;53.250;8.702;2022-11-04T17:57:26;8.93;;;3.28;;
41964;SDS011;50120;53.250;8.702;2022-11-04T17:59:51;7.63;;;2.80;;
41964;SDS011;50120;53.250;8.702;2022-11-04T18:02:17;11.73;;;2.45;;
41964;SDS011;50120;53.250;8.702;2022-11-04T18:04:43;6.55;;;2.20;;
41964;SDS011;50120;53.250;8.702;2022-11-04T18:07:10;7.97;;;2.20;;
41964;SDS011;50120;53.250;8.702;2022-11-04T18:09:35;8.80;;;2.92;;